Time;durP1;ratioP1;P1;durP2;ratioP2;P2;SDS_P1;SDS_P2;PMS_P1;PMS_P2;Temp;Humidity;BMP_temperature;BMP_pressure;BME280_temperature;BME280_humidity;BME280_pressure;Samples;Min_cycle;Max_cycle;Signal;HPM_P1;HPM_P2
2023/03/28 00:01:21;;;;;;;;;;;7.30;49.10;;;5.24;51.99;101169.34;12256992;19;19925;-89
2023/03/28 00:05:23;;;;;;;;;;;7.10;49.90;;;5.43;52.08;101229.28;12256144;19;19998;-89
2023/03/28 00:09:24;;;;;;;;;;;7.10;49.70;;;5.35;52.20;101242.41;12254815;19;19915;-89
2023/03/28 00:13:28;;;;;;;;;;;7.00;49.40;;;4.93;52.18;101184.78;12257111;19;20352;-89
2023/03/28 00:17:30;;;;;;;;;;;7.10;49.30;;;5.12;52.20;101244.72;12253458;19;19931;-89
2023/03/28 00:21:36;;;;;;;;;;;6.80;49.10;;;5.01;51.98;101227.69;12258085;19;19919;-89
2023/03/28 00:25:42;;;;;;;;;;;6.70;48.90;;;5.02;52.21;101233.72;12258005;19;19927;-89
2023/03/28 00:29:43;;;;;;;;;;;6.60;48.90;;;4.96;52.09;101244.22;12251981;19;19918;-89
2023/03/28 00:33:46;;;;;;;;;;;6.50;48.90;;;4.66;52.18;101203.50;12252965;19;19923;-89
2023/03/28 00:37:49;;;;;;;;;;;6.50;49.00;;;4.59;52.08;101201.97;12255500;19;19911;-89
2023/03/28 00:41:51;;;;;;;;;;;6.40;48.90;;;4.80;52.05;101249.75;12252385;19;19942;-89
2023/03/28 00:45:52;;;;;;;;;;;6.40;49.10;;;4.77;52.03;101247.22;12253263;19;19914;-89
2023/03/28 00:49:58;;;;;;;;;;;6.60;49.00;;;4.72;52.21;101262.00;12250806;19;19915;-90
2023/03/28 00:54:01;;;;;;;;;;;6.30;49.20;;;4.75;52.25;101282.66;12253729;19;19960;-89
2023/03/28 00:58:06;;;;;;;;;;;6.40;48.90;;;4.71;51.94;101281.00;12251273;19;19942;-89
2023/03/28 01:02:09;;;;;;;;;;;6.40;49.00;;;4.69;52.17;101277.59;12251314;19;19926;-89
2023/03/28 01:06:13;;;;;;;;;;;6.30;49.00;;;4.59;52.18;101270.91;12248175;19;19926;-89
2023/03/28 01:10:15;;;;;;;;;;;6.40;48.90;;;4.65;52.20;101286.31;12252146;19;19919;-89
2023/03/28 01:14:20;;;;;;;;;;;6.40;49.00;;;4.65;52.25;101291.50;12252196;19;19978;-89
2023/03/28 01:18:23;;;;;;;;;;;6.20;49.00;;;4.55;52.34;101284.81;12249650;19;19946;-89
2023/03/28 01:22:37;;;;;;;;;;;6.50;49.10;;;4.69;52.26;101313.81;12250475;19;19906;-89
2023/03/28 01:26:52;;;;;;;;;;;6.20;49.00;;;4.55;52.42;101297.75;12251167;19;19915;-89
2023/03/28 01:31:26;;;;;;;;;;;6.20;49.00;;;4.66;52.27;101314.72;12251100;19;20373;-89
2023/03/28 01:36:11;;;;;;;;;;;6.20;49.00;;;4.65;52.28;101319.94;12246234;19;19982;-89
2023/03/28 01:40:42;;;;;;;;;;;6.20;49.10;;;4.50;52.20;101315.94;12252337;19;20538;-89
2023/03/28 01:45:03;;;;;;;;;;;6.20;49.00;;;4.61;52.34;101336.41;12252622;19;19915;-89
2023/03/28 01:49:15;;;;;;;;;;;6.20;49.00;;;4.63;52.25;101339.81;12246524;19;20260;-89
2023/03/28 01:53:43;;;;;;;;;;;6.20;48.90;;;4.57;52.17;101335.63;12249220;19;20325;-89
2023/03/28 01:58:10;;;;;;;;;;;6.10;48.90;;;4.56;52.43;101346.00;12248511;19;19940;-89
2023/03/28 02:02:21;;;;;;;;;;;6.20;48.90;;;4.48;52.26;101334.94;12248619;19;20340;-89
2023/03/28 02:06:26;;;;;;;;;;;6.20;48.90;;;4.30;52.28;101306.00;12246592;19;19986;-89
2023/03/28 02:10:30;;;;;;;;;;;6.50;49.10;;;4.28;52.35;101312.94;12248998;19;20262;-89
2023/03/28 02:14:50;;;;;;;;;;;6.40;49.10;;;4.57;52.18;101356.31;12257218;19;19919;-89
2023/03/28 02:19:23;;;;;;;;;;;6.20;49.00;;;4.66;52.23;101381.13;12254910;19;20008;-89
2023/03/28 02:23:52;;;;;;;;;;;6.20;49.00;;;4.56;52.18;101359.75;12258375;19;19922;-89
2023/03/28 02:28:08;;;;;;;;;;;6.20;49.00;;;4.63;52.27;101370.84;12257191;19;19923;-89
2023/03/28 02:32:36;;;;;;;;;;;6.30;49.10;;;4.64;52.40;101380.31;12261068;19;19947;-89
2023/03/28 02:36:49;;;;;;;;;;;6.20;49.10;;;4.64;52.21;101383.78;12260575;19;19939;-88
2023/03/28 02:40:52;;;;;;;;;;;6.20;49.00;;;4.45;52.43;101364.31;12259610;19;20239;-89
2023/03/28 02:45:12;;;;;;;;;;;6.20;49.10;;;4.57;52.31;101399.44;12261318;19;19930;-89
2023/03/28 02:49:33;;;;;;;;;;;6.20;49.00;;;4.54;52.44;101412.44;12256245;19;20317;-89
2023/03/28 02:53:53;;;;;;;;;;;6.20;49.00;;;4.53;52.48;101406.38;12262281;19;19929;-89
2023/03/28 02:58:09;;;;;;;;;;;6.10;48.90;;;4.40;52.45;101385.09;12255977;19;20364;-88
2023/03/28 03:02:15;;;;;;;;;;;6.30;49.00;;;4.43;52.34;101407.47;12257447;19;19941;-89
2023/03/28 03:06:18;;;;;;;;;;;6.10;48.90;;;4.35;52.33;101401.59;12256820;19;20264;-89
2023/03/28 03:10:20;;;;;;;;;;;6.10;49.00;;;4.42;52.28;101411.75;12258290;19;19918;-89
2023/03/28 03:14:22;;;;;;;;;;;6.20;49.00;;;4.49;52.37;101434.94;12259313;19;19919;-89
2023/03/28 03:18:26;;;;;;;;;;;6.00;48.90;;;4.43;52.59;101429.00;12254982;19;19918;-88
2023/03/28 03:22:28;;;;;;;;;;;6.00;48.90;;;4.45;52.52;101436.72;12257441;19;19911;-88
2023/03/28 03:26:30;;;;;;;;;;;6.00;48.90;;;4.47;52.46;101440.13;12256831;19;19953;-88
2023/03/28 03:30:36;;;;;;;;;;;6.00;49.00;;;4.51;52.47;101443.50;12258709;19;19915;-89
2023/03/28 03:34:57;;;;;;;;;;;6.10;49.00;;;4.51;52.38;101443.50;12259497;19;19923;-89
2023/03/28 03:38:59;;;;;;;;;;;6.00;49.10;;;4.38;52.51;101455.81;12253362;19;19914;-89
2023/03/28 03:43:01;;;;;;;;;;;6.00;49.10;;;4.36;52.64;101455.84;12252611;19;20566;-89
2023/03/28 03:47:04;;;;;;;;;;;6.10;49.30;;;4.31;52.52;101452.47;12254086;19;20324;-88
2023/03/28 03:51:06;;;;;;;;;;;6.00;49.10;;;4.40;52.58;101460.09;12255000;19;19938;-88
2023/03/28 03:55:07;;;;;;;;;;;6.00;49.10;;;4.31;52.53;101460.22;12257741;19;19936;-89
2023/03/28 03:59:13;;;;;;;;;;;6.10;49.00;;;4.22;52.29;101447.47;12251997;19;19919;-89
2023/03/28 04:03:15;;;;;;;;;;;6.10;48.90;;;4.51;52.58;101492.63;12255500;19;19926;-89
2023/03/28 04:07:17;;;;;;;;;;;6.30;49.00;;;4.44;52.56;101487.59;12253551;19;20002;-88
2023/03/28 04:11:21;;;;;;;;;;;6.10;49.00;;;4.49;52.59;101497.00;12257098;19;19966;-88
2023/03/28 04:15:22;;;;;;;;;;;6.10;48.90;;;4.20;52.54;101463.00;12256547;19;20241;-88
2023/03/28 04:19:48;;;;;;;;;;;6.20;49.00;;;4.40;52.42;101495.41;12253629;19;19921;-89
2023/03/28 04:23:51;;;;;;;;;;;6.10;48.90;;;4.42;52.50;101509.19;12252379;19;19931;-88
2023/03/28 04:28:00;;;;;;;;;;;6.00;48.80;;;4.27;52.57;101497.38;12254059;19;19914;-88
2023/03/28 04:32:05;;;;;;;;;;;6.00;49.10;;;4.29;52.47;101502.50;12246748;19;19919;-89
2023/03/28 04:36:28;;;;;;;;;;;6.00;49.00;;;4.24;52.42;101515.53;12251036;19;19918;-88
2023/03/28 04:40:38;;;;;;;;;;;6.00;49.20;;;4.26;52.52;101537.00;12244447;19;19919;-88
2023/03/28 04:44:52;;;;;;;;;;;6.00;49.20;;;4.08;52.59;101511.44;12250675;19;19923;-88
2023/03/28 04:48:54;;;;;;;;;;;5.90;49.20;;;3.98;52.42;101501.25;12248195;19;20256;-88
2023/03/28 04:53:00;;;;;;;;;;;6.20;49.40;;;4.26;52.54;101568.03;12251611;19;20256;-88
2023/03/28 04:57:03;;;;;;;;;;;5.90;49.20;;;4.16;52.56;101566.50;12250007;19;19945;-89
2023/03/28 05:01:13;;;;;;;;;;;5.90;49.10;;;4.19;52.52;101567.28;12249758;19;19919;-89
2023/03/28 05:05:51;;;;;;;;;;;6.10;49.50;;;4.17;52.45;101586.28;12246800;19;19929;-88
2023/03/28 05:09:53;;;;;;;;;;;6.10;49.40;;;4.09;52.50;101575.19;12249138;19;19928;-88
2023/03/28 05:13:55;;;;;;;;;;;6.10;49.30;;;4.17;52.65;101591.44;12249139;19;20288;-88
2023/03/28 05:18:19;;;;;;;;;;;5.90;49.20;;;4.02;52.72;101561.50;12249115;19;20351;-88
2023/03/28 05:22:21;;;;;;;;;;;5.90;49.30;;;4.11;52.71;101581.22;12245905;19;19923;-88
2023/03/28 05:26:22;;;;;;;;;;;6.10;49.40;;;4.35;52.72;101622.22;12250245;19;20390;-88
2023/03/28 05:30:24;;;;;;;;;;;6.00;49.30;;;4.26;52.65;101606.81;12249390;19;19915;-90
2023/03/28 05:34:28;;;;;;;;;;;5.90;49.60;;;4.09;52.52;101580.38;12248195;19;19910;-87
2023/03/28 05:38:32;;;;;;;;;;;6.00;49.30;;;4.28;52.78;101628.34;12246171;19;19935;-88
2023/03/28 05:42:38;;;;;;;;;;;6.20;49.30;;;4.24;52.60;101618.94;12247017;19;19922;-87
2023/03/28 05:46:46;;;;;;;;;;;6.00;49.20;;;4.24;52.54;101637.03;12245895;19;19911;-89
2023/03/28 05:50:51;;;;;;;;;;;6.00;49.30;;;4.08;52.79;101620.00;12248065;19;19951;-87
2023/03/28 05:54:55;;;;;;;;;;;5.90;49.20;;;4.31;52.50;101656.72;12247231;19;20339;-87
2023/03/28 05:58:56;;;;;;;;;;;6.20;49.60;;;4.30;52.73;101672.28;12246380;19;19921;-89
2023/03/28 06:02:57;;;;;;;;;;;6.00;49.20;;;4.24;52.95;101664.59;12244568;19;19922;-87
2023/03/28 06:07:07;;;;;;;;;;;6.20;49.20;;;4.29;52.57;101696.41;12244911;19;19927;-88
2023/03/28 06:11:09;;;;;;;;;;;6.00;49.10;;;4.33;52.61;101709.28;12245296;19;20363;-87
2023/03/28 06:15:31;;;;;;;;;;;6.20;49.10;;;4.25;52.69;101699.91;12247361;19;19907;-89
2023/03/28 06:19:32;;;;;;;;;;;5.90;49.00;;;4.17;52.66;101687.09;12243461;19;19915;-88
2023/03/28 06:23:34;;;;;;;;;;;6.00;49.10;;;4.26;52.67;101701.63;12240680;19;20333;-86
2023/03/28 06:27:37;;;;;;;;;;;5.90;49.20;;;4.08;52.69;101680.31;12241843;19;20264;-91
2023/03/28 06:31:38;;;;;;;;;;;6.00;49.20;;;4.21;52.72;101704.25;12245772;19;19919;-88
2023/03/28 06:35:40;;;;;;;;;;;6.00;49.40;;;4.31;52.88;101718.78;12245631;19;19922;-87
2023/03/28 06:39:42;;;;;;;;;;;6.00;49.20;;;4.36;52.86;101726.47;12238886;19;20265;-88
2023/03/28 06:43:44;;;;;;;;;;;6.00;49.20;;;4.42;52.90;101729.81;12245594;19;19907;-88
2023/03/28 06:48:06;;;;;;;;;;;6.40;49.30;;;4.56;52.68;101757.22;12247178;19;19926;-88
2023/03/28 06:52:26;;;;;;;;;;;6.10;49.10;;;4.47;53.04;101737.53;12249578;19;20567;-88
2023/03/28 06:56:29;;;;;;;;;;;6.20;49.20;;;4.57;53.04;101746.88;12250592;19;20283;-88
2023/03/28 07:00:33;;;;;;;;;;;6.20;49.10;;;4.53;52.92;101739.19;12250590;19;19922;-88
2023/03/28 07:05:01;;;;;;;;;;;6.30;49.00;;;4.68;52.95;101759.66;12259354;19;19933;-88
2023/03/28 07:09:03;;;;;;;;;;;6.30;49.10;;;4.52;53.02;101729.72;12256231;19;19914;-88
2023/03/28 07:13:13;;;;;;;;;;;6.70;49.20;;;4.74;52.83;101759.56;12260151;19;19922;-88
2023/03/28 07:17:26;;;;;;;;;;;6.50;49.20;;;4.82;52.96;101765.50;12255075;19;19926;-89
2023/03/28 07:21:28;;;;;;;;;;;6.70;49.20;;;4.96;53.05;101777.38;12257898;19;19911;-88
2023/03/28 07:25:33;;;;;;;;;;;6.60;49.10;;;5.02;52.97;101783.34;12257146;19;19915;-87
2023/03/28 07:29:36;;;;;;;;;;;6.60;49.00;;;4.97;52.84;101773.91;12252039;19;19919;-87
2023/03/28 07:33:38;;;;;;;;;;;6.70;49.00;;;5.10;53.04;101786.66;12251074;19;19911;-88
2023/03/28 07:37:46;;;;;;;;;;;6.70;48.90;;;5.20;53.13;101797.69;12258016;19;19919;-88
2023/03/28 07:42:10;;;;;;;;;;;6.80;49.00;;;5.30;53.00;101814.81;12257959;19;20276;-88
2023/03/28 07:46:13;;;;;;;;;;;6.90;49.00;;;5.04;53.13;101749.63;12259447;19;19923;-88
2023/03/28 07:50:15;;;;;;;;;;;7.00;48.90;;;5.48;53.05;101816.28;12259438;19;19914;-88
2023/03/28 07:54:17;;;;;;;;;;;7.10;48.80;;;5.61;53.23;101829.84;12259207;19;19926;-88
2023/03/28 07:58:20;;;;;;;;;;;7.20;48.90;;;5.74;53.16;101825.31;12254276;19;19956;-88
2023/03/28 08:02:21;;;;;;;;;;;7.50;49.00;;;5.90;53.16;101821.56;12254515;19;19950;-88
2023/03/28 08:06:24;;;;;;;;;;;7.70;48.50;;;6.05;53.06;101833.44;12255875;19;19930;-90
2023/03/28 08:10:26;;;;;;;;;;;7.60;48.50;;;6.12;53.20;101826.41;12256521;19;19958;-88
2023/03/28 08:14:28;;;;;;;;;;;7.80;48.40;;;6.17;53.07;101815.03;12255134;19;19974;-89
2023/03/28 08:18:30;;;;;;;;;;;7.90;47.70;;;6.29;52.97;101836.44;12250969;19;19933;-88
2023/03/28 08:22:32;;;;;;;;;;;8.00;48.10;;;6.39;52.90;101848.34;12250526;19;19922;-89
2023/03/28 08:26:52;;;;;;;;;;;8.00;48.00;;;6.49;53.15;101843.84;12252349;19;19915;-88
2023/03/28 08:30:55;;;;;;;;;;;8.10;47.60;;;6.46;52.84;101834.38;12254200;19;19919;-87
2023/03/28 08:34:57;;;;;;;;;;;8.20;47.60;;;6.60;52.94;101845.31;12251701;19;20278;-88
2023/03/28 08:39:03;;;;;;;;;;;8.30;47.70;;;6.63;52.97;101837.47;12250248;19;19919;-88
2023/03/28 08:43:15;;;;;;;;;;;8.40;47.30;;;6.75;53.12;101835.50;12250418;19;20273;-88
2023/03/28 08:47:25;;;;;;;;;;;8.50;47.30;;;6.90;52.98;101848.16;12248375;19;20337;-88
2023/03/28 08:51:36;;;;;;;;;;;8.60;47.30;;;7.00;52.74;101874.78;12249995;19;20005;-88
2023/03/28 08:55:42;;;;;;;;;;;8.70;47.30;;;7.00;52.82;101872.19;12249753;19;19930;-89
2023/03/28 08:59:59;;;;;;;;;;;8.70;46.90;;;6.92;52.75;101851.59;12248516;19;19915;-88
2023/03/28 09:04:02;;;;;;;;;;;8.70;46.30;;;6.96;52.85;101853.22;12249765;19;20319;-88
2023/03/28 09:08:21;;;;;;;;;;;8.80;45.90;;;7.20;52.84;101882.13;12248747;19;19923;-88
2023/03/28 09:12:46;;;;;;;;;;;8.90;45.10;;;7.21;52.52;101879.50;12251109;19;19923;-89
2023/03/28 09:16:56;;;;;;;;;;;8.90;44.40;;;7.21;52.58;101878.63;12247841;19;19990;-88
2023/03/28 09:21:26;;;;;;;;;;;8.90;44.50;;;7.17;52.57;101892.59;12250669;19;19926;-88
2023/03/28 09:25:53;;;;;;;;;;;8.90;44.80;;;7.16;52.29;101903.88;12250648;19;19935;-88
2023/03/28 09:30:01;;;;;;;;;;;8.90;45.10;;;7.12;52.65;101886.66;12255098;19;19957;-88
2023/03/28 09:34:05;;;;;;;;;;;8.90;45.20;;;7.15;52.28;101874.44;12256304;19;19947;-89
2023/03/28 09:38:39;;;;;;;;;;;8.90;41.60;;;7.26;52.19;101905.38;12252054;19;20640;-88
2023/03/28 09:43:11;;;;;;;;;;;8.90;44.40;;;7.31;52.15;101911.31;12249674;19;20260;-88
2023/03/28 09:47:18;;;;;;;;;;;8.90;44.90;;;7.25;52.22;101906.28;12248840;19;19944;-87
2023/03/28 09:51:27;;;;;;;;;;;8.90;43.90;;;7.23;52.10;101919.28;12247516;19;19922;-89
2023/03/28 09:55:30;;;;;;;;;;;8.90;44.10;;;7.29;52.06;101924.38;12248840;19;19915;-88
2023/03/28 09:59:34;;;;;;;;;;;8.90;44.30;;;7.28;51.97;101929.56;12245835;19;19921;-89
2023/03/28 10:03:51;;;;;;;;;;;9.00;43.50;;;7.27;51.99;101922.69;12248046;19;19929;-88
2023/03/28 10:07:56;;;;;;;;;;;9.00;44.50;;;7.04;51.87;101886.81;12244571;19;19914;-88
2023/03/28 10:12:36;;;;;;;;;;;9.00;45.00;;;7.35;51.85;101943.31;12248249;19;19947;-88
2023/03/28 10:16:40;;;;;;;;;;;9.00;44.90;;;7.21;51.93;101928.88;12246200;19;19923;-89
2023/03/28 10:21:39;;;;;;;;;;;9.00;44.00;;;7.33;52.04;101940.72;12248289;19;20559;-88
2023/03/28 10:25:49;;;;;;;;;;;8.90;45.00;;;7.30;51.92;101922.63;12245979;19;19986;-88
2023/03/28 10:29:53;;;;;;;;;;;9.00;45.30;;;7.49;52.08;101943.84;12243645;19;19919;-88
2023/03/28 10:33:57;;;;;;;;;;;9.10;44.80;;;7.51;51.86;101953.31;12247120;19;19954;-88
2023/03/28 10:38:20;;;;;;;;;;;9.10;45.10;;;7.50;52.02;101941.19;12254640;19;19914;-88
2023/03/28 10:42:51;;;;;;;;;;;9.20;45.00;;;7.72;51.98;101956.28;12256587;19;19922;-88
2023/03/28 10:47:15;;;;;;;;;;;9.30;43.40;;;7.88;51.94;101955.03;12258612;19;19915;-87
2023/03/28 10:51:42;;;;;;;;;;;9.50;44.70;;;8.07;52.05;101958.03;12259553;19;19917;-88
2023/03/28 10:56:03;;;;;;;;;;;9.60;44.80;;;8.27;52.12;101973.16;12261760;19;19960;-89
2023/03/28 11:00:40;;;;;;;;;;;9.80;44.80;;;8.44;51.81;101956.28;12262131;19;19926;-88
2023/03/28 11:05:07;;;;;;;;;;;9.90;43.90;;;8.49;51.70;101964.84;12257858;19;19918;-89
2023/03/28 11:09:47;;;;;;;;;;;10.10;43.00;;;8.57;51.57;101965.50;12255668;19;19915;-88
2023/03/28 11:14:27;;;;;;;;;;;10.20;44.40;;;8.57;51.49;101966.34;12256653;19;19911;-87
2023/03/28 11:19:01;;;;;;;;;;;10.20;43.40;;;8.54;51.81;101979.44;12255809;19;19933;-87
2023/03/28 11:23:24;;;;;;;;;;;10.20;43.20;;;8.55;51.66;101991.53;12256011;19;19931;-87
2023/03/28 11:28:24;;;;;;;;;;;10.20;42.00;;;8.34;51.50;101964.28;12254531;19;19914;-88
2023/03/28 11:32:51;;;;;;;;;;;10.20;43.20;;;8.51;51.28;101983.88;12254531;19;20340;-88
2023/03/28 11:37:01;;;;;;;;;;;10.10;41.80;;;8.47;51.33;101980.47;12254421;19;19975;-87
2023/03/28 11:41:02;;;;;;;;;;;10.10;43.50;;;8.57;51.40;101983.72;12247218;19;19922;-89
2023/03/28 11:45:34;;;;;;;;;;;10.10;42.10;;;8.57;51.32;101970.69;12255462;19;19917;-88
2023/03/28 11:49:50;;;;;;;;;;;10.20;43.60;;;8.51;51.32;101952.66;12248822;19;19925;-88
2023/03/28 11:54:26;;;;;;;;;;;10.20;42.20;;;8.59;51.36;101974.97;12255643;19;19918;-88
2023/03/28 11:58:30;;;;;;;;;;;10.20;41.90;;;8.66;51.20;101985.22;12250695;19;19918;-89
2023/03/28 12:02:39;;;;;;;;;;;10.20;42.50;;;8.68;51.29;101973.00;12252298;19;19918;-88
2023/03/28 12:06:58;;;;;;;;;;;10.20;43.20;;;8.68;51.21;101952.19;12253272;19;19927;-89
2023/03/28 12:11:06;;;;;;;;;;;10.30;43.70;;;8.75;51.08;101966.72;12258852;19;19922;-90
2023/03/28 12:15:45;;;;;;;;;;;10.30;44.40;;;8.85;51.01;101962.97;12253390;19;20332;-90
2023/03/28 12:19:52;;;;;;;;;;;10.40;44.00;;;8.84;51.35;101943.03;12255174;19;19907;-89
2023/03/28 12:24:10;;;;;;;;;;;10.50;43.80;;;9.12;51.28;101963.09;12252510;19;19982;-88
2023/03/28 12:28:21;;;;;;;;;;;10.60;44.00;;;9.22;51.01;101970.59;12252177;19;19925;-87
2023/03/28 12:32:39;;;;;;;;;;;10.70;42.20;;;9.35;51.23;101965.03;12252595;19;19930;-88
2023/03/28 12:36:53;;;;;;;;;;;10.90;41.30;;;9.46;50.94;101966.38;12251991;19;19974;-87
2023/03/28 12:40:58;;;;;;;;;;;11.00;43.50;;;9.59;51.08;101959.06;12236806;19;19919;-89
2023/03/28 12:45:08;;;;;;;;;;;11.10;44.10;;;9.69;50.98;101957.88;12243986;19;19914;-89
2023/03/28 12:49:33;;;;;;;;;;;11.20;43.50;;;9.82;50.99;101962.69;12243324;19;19923;-88
2023/03/28 12:53:59;;;;;;;;;;;11.40;44.10;;;9.87;50.95;101963.38;12248125;19;19942;-88
2023/03/28 12:58:25;;;;;;;;;;;11.50;43.70;;;9.88;50.81;101959.84;12243545;19;19938;-88
2023/03/28 13:02:48;;;;;;;;;;;11.60;43.00;;;9.94;50.89;101964.91;12249755;19;20324;-88
2023/03/28 13:07:08;;;;;;;;;;;11.50;42.20;;;9.99;50.91;101970.81;12247735;19;19919;-88
2023/03/28 13:11:27;;;;;;;;;;;11.60;42.80;;;10.10;50.77;101970.44;12246327;19;19915;-88
2023/03/28 13:15:31;;;;;;;;;;;11.60;42.90;;;10.13;50.88;101971.22;12247052;19;20355;-89
2023/03/28 13:19:41;;;;;;;;;;;11.70;42.70;;;10.07;50.72;101954.88;12242377;19;19926;-88
2023/03/28 13:23:46;;;;;;;;;;;11.80;42.90;;;10.11;50.53;101967.78;12243590;19;19923;-87
2023/03/28 13:27:50;;;;;;;;;;;11.80;43.70;;;10.18;50.56;101971.06;12243178;19;20325;-87
2023/03/28 13:32:01;;;;;;;;;;;11.80;42.30;;;10.00;50.63;101932.53;12245028;19;19930;-87
2023/03/28 13:36:03;;;;;;;;;;;11.80;43.50;;;10.20;50.46;101971.84;12242695;19;19927;-87
2023/03/28 13:40:25;;;;;;;;;;;11.80;42.60;;;10.02;50.53;101942.00;12245925;19;19990;-87
2023/03/28 13:44:28;;;;;;;;;;;11.80;40.00;;;10.08;50.42;101952.25;12242832;19;19938;-87
2023/03/28 13:48:37;;;;;;;;;;;11.70;41.30;;;10.16;50.27;101959.81;12247864;19;19927;-87
2023/03/28 13:52:39;;;;;;;;;;;11.70;41.50;;;10.12;50.23;101953.81;12249234;19;19930;-88
2023/03/28 13:56:45;;;;;;;;;;;11.70;39.70;;;10.17;50.31;101945.84;12240382;19;19929;-89
2023/03/28 14:00:47;;;;;;;;;;;11.80;41.90;;;10.12;50.09;101922.50;12243911;19;19937;-89
2023/03/28 14:04:54;;;;;;;;;;;11.80;41.00;;;10.35;50.07;101950.47;12236128;19;19915;-89
2023/03/28 14:08:58;;;;;;;;;;;11.90;40.50;;;10.30;50.12;101935.88;12246011;19;20302;-89
2023/03/28 14:13:13;;;;;;;;;;;11.90;41.50;;;10.44;50.16;101961.50;12248103;19;19982;-89
2023/03/28 14:17:35;;;;;;;;;;;12.00;41.40;;;10.29;49.89;101934.16;12248300;19;19927;-89
2023/03/28 14:21:36;;;;;;;;;;;11.90;42.00;;;10.33;49.95;101947.06;12245874;19;19923;-89
2023/03/28 14:25:41;;;;;;;;;;;11.90;42.20;;;10.20;49.89;101923.09;12242767;19;22205;-89
2023/03/28 14:29:53;;;;;;;;;;;11.90;42.50;;;10.30;49.81;101947.19;12241119;19;19936;-89
2023/03/28 14:33:58;;;;;;;;;;;11.90;38.10;;;10.32;49.70;101952.34;12247638;19;19942;-89
2023/03/28 14:38:04;;;;;;;;;;;11.90;40.00;;;10.18;49.75;101921.47;12246072;19;19918;-89
2023/03/28 14:42:11;;;;;;;;;;;11.80;41.20;;;10.24;49.84;101929.09;12247385;19;19919;-89
2023/03/28 14:46:12;;;;;;;;;;;11.90;42.00;;;10.34;49.66;101937.47;12246199;19;19934;-89
2023/03/28 14:50:15;;;;;;;;;;;11.90;42.50;;;10.34;49.63;101940.09;12248104;19;19935;-89
2023/03/28 14:54:22;;;;;;;;;;;11.90;41.50;;;10.25;49.60;101914.28;12245176;19;19915;-89
2023/03/28 14:58:23;;;;;;;;;;;11.90;42.60;;;10.42;49.69;101935.44;12244387;19;19911;-89
2023/03/28 15:02:30;;;;;;;;;;;11.90;42.70;;;10.25;49.66;101901.22;12241410;19;20435;-89
2023/03/28 15:06:32;;;;;;;;;;;12.00;42.70;;;10.47;49.58;101951.81;12244271;19;20511;-89
2023/03/28 15:10:34;;;;;;;;;;;12.00;42.80;;;10.27;49.61;101931.63;12242588;19;19911;-89
2023/03/28 15:14:42;;;;;;;;;;;11.90;42.00;;;10.34;49.66;101937.47;12243665;19;20338;-89
2023/03/28 15:18:47;;;;;;;;;;;11.90;42.50;;;10.27;49.47;101915.97;12241366;19;21115;-89
2023/03/28 15:22:51;;;;;;;;;;;11.90;41.90;;;10.41;49.54;101939.81;12244857;19;19926;-89
2023/03/28 15:26:56;;;;;;;;;;;11.90;41.00;;;10.36;49.41;101936.50;12254644;19;19915;-89
2023/03/28 15:30:59;;;;;;;;;;;11.90;42.00;;;10.39;49.54;101936.41;12257757;19;19926;-89
2023/03/28 15:35:05;;;;;;;;;;;12.00;42.40;;;10.49;49.38;101952.63;12254439;19;19911;-89
2023/03/28 15:39:26;;;;;;;;;;;11.90;41.70;;;10.35;49.21;101919.16;12253735;19;19918;-89
2023/03/28 15:43:31;;;;;;;;;;;12.00;42.20;;;10.51;49.41;101944.75;12253942;19;19926;-89
2023/03/28 15:47:34;;;;;;;;;;;12.00;42.40;;;10.27;49.36;101905.50;12252319;19;20308;-90
2023/03/28 15:51:46;;;;;;;;;;;11.90;42.10;;;10.41;49.24;101928.53;12254731;19;19923;-89
2023/03/28 15:55:48;;;;;;;;;;;12.00;41.60;;;10.42;49.25;101927.59;12256565;19;19914;-90
2023/03/28 15:59:50;;;;;;;;;;;11.90;41.60;;;10.31;49.10;101908.84;12251761;19;19918;-90
2023/03/28 16:04:23;;;;;;;;;;;11.90;41.60;;;10.48;49.16;101943.09;12255124;19;19922;-89
2023/03/28 16:08:30;;;;;;;;;;;11.90;40.80;;;10.39;49.22;101932.94;12253895;19;19927;-89
2023/03/28 16:12:31;;;;;;;;;;;11.90;41.70;;;10.41;48.99;101936.34;12258459;19;19915;-89
2023/03/28 16:17:08;;;;;;;;;;;11.90;42.50;;;10.33;49.03;101927.94;12249863;19;20289;-88
2023/03/28 16:21:21;;;;;;;;;;;11.90;42.30;;;10.30;48.89;101928.91;12255355;19;19935;-89
2023/03/28 16:25:22;;;;;;;;;;;11.80;42.80;;;10.25;48.96;101938.63;12257520;19;19922;-89
2023/03/28 16:29:25;;;;;;;;;;;11.80;42.70;;;10.13;49.01;101918.16;12253897;19;19927;-87
2023/03/28 16:33:27;;;;;;;;;;;11.80;43.00;;;10.14;49.02;101925.06;12253642;19;19919;-88
2023/03/28 16:37:28;;;;;;;;;;;11.70;43.10;;;10.09;48.97;101920.00;12251479;19;19911;-87
2023/03/28 16:41:30;;;;;;;;;;;11.70;42.90;;;10.11;48.83;101925.19;12251620;19;20324;-88
2023/03/28 16:45:31;;;;;;;;;;;11.60;42.70;;;10.15;48.93;101947.66;12251456;19;20329;-88
2023/03/28 16:49:32;;;;;;;;;;;11.60;42.90;;;10.03;48.83;101925.44;12247852;19;19949;-88
2023/03/28 16:53:36;;;;;;;;;;;11.60;42.90;;;10.10;48.92;101945.22;12251026;19;19918;-88
2023/03/28 16:57:37;;;;;;;;;;;11.50;43.20;;;9.91;48.72;101918.00;12249945;19;19921;-88
2023/03/28 17:01:41;;;;;;;;;;;11.50;43.30;;;10.03;48.84;101924.59;12251006;19;19914;-88
2023/03/28 17:05:43;;;;;;;;;;;11.50;43.20;;;10.03;48.82;101938.50;12247937;19;19915;-87
2023/03/28 17:09:45;;;;;;;;;;;11.40;43.40;;;9.99;48.74;101926.47;12249227;19;19915;-88
2023/03/28 17:13:50;;;;;;;;;;;11.50;43.60;;;9.71;48.73;101885.63;12250973;19;19915;-88
2023/03/28 17:17:51;;;;;;;;;;;11.50;43.70;;;10.00;48.78;101930.78;12247506;19;19942;-87
2023/03/28 17:21:54;;;;;;;;;;;11.50;43.70;;;9.97;48.54;101928.28;12252296;19;19939;-87
2023/03/28 17:25:56;;;;;;;;;;;11.40;43.50;;;9.90;48.65;101921.53;12252033;19;19922;-86
2023/03/28 17:29:57;;;;;;;;;;;11.40;43.60;;;9.79;48.41;101914.06;12247884;19;19911;-86
2023/03/28 17:33:59;;;;;;;;;;;11.30;43.60;;;9.72;48.60;101910.81;12251306;19;20640;-86
2023/03/28 17:38:00;;;;;;;;;;;11.20;43.50;;;9.57;48.53;101903.47;12249676;19;20290;-87
2023/03/28 17:42:01;;;;;;;;;;;11.20;43.70;;;9.51;48.50;101911.50;12249062;19;19915;-87
2023/03/28 17:46:03;;;;;;;;;;;11.10;43.60;;;9.55;48.59;101928.75;12249961;19;20313;-87
2023/03/28 17:50:05;;;;;;;;;;;11.00;43.90;;;9.36;48.38;101917.19;12247408;19;19927;-87
2023/03/28 17:54:10;;;;;;;;;;;10.90;43.50;;;9.34;48.34;101925.03;12246478;19;19992;-87
2023/03/28 17:58:13;;;;;;;;;;;10.80;43.70;;;9.28;48.52;101944.31;12245912;19;20347;-88
2023/03/28 18:02:15;;;;;;;;;;;10.70;43.70;;;9.17;48.27;101935.13;12250146;19;19915;-88
2023/03/28 18:06:20;;;;;;;;;;;10.60;43.70;;;9.14;48.26;101935.22;12240885;19;20463;-88
2023/03/28 18:10:22;;;;;;;;;;;10.50;43.70;;;8.93;48.22;101921.06;12246823;19;19914;-87
2023/03/28 18:14:24;;;;;;;;;;;10.40;43.70;;;8.98;48.18;101940.03;12240056;19;19926;-87
2023/03/28 18:18:27;;;;;;;;;;;10.40;43.90;;;8.86;48.34;101925.63;12240740;19;19948;-88
2023/03/28 18:22:29;;;;;;;;;;;10.20;43.80;;;8.91;48.28;101943.69;12229189;19;19955;-88
2023/03/28 18:26:32;;;;;;;;;;;10.20;43.90;;;8.83;48.28;101941.31;12243625;19;19988;-87
2023/03/28 18:30:33;;;;;;;;;;;10.10;43.90;;;8.76;48.22;101938.03;12240915;19;19982;-87
2023/03/28 18:34:35;;;;;;;;;;;10.00;44.00;;;8.52;48.15;101915.28;12243101;19;19911;-87
2023/03/28 18:38:38;;;;;;;;;;;9.90;43.90;;;8.51;48.01;101924.00;12241681;19;20276;-87
2023/03/28 18:42:40;;;;;;;;;;;9.90;43.90;;;8.19;48.02;101887.50;12243814;19;19983;-87
2023/03/28 18:46:42;;;;;;;;;;;9.80;43.90;;;8.04;48.25;101881.84;12248334;19;19917;-87
2023/03/28 18:50:44;;;;;;;;;;;9.70;43.90;;;8.03;48.11;101891.38;12247382;19;20337;-87
2023/03/28 18:54:46;;;;;;;;;;;9.60;43.90;;;8.16;48.12;101924.00;12250999;19;19935;-87
2023/03/28 18:58:49;;;;;;;;;;;9.60;44.00;;;7.80;48.00;101873.75;12257706;19;20289;-88